createdAt,value
2022-08-01T00:00:37.170Z,4.77
2022-08-01T00:03:04.187Z,4.87
2022-08-01T00:05:31.223Z,4.37
2022-08-01T00:07:58.150Z,4.53
2022-08-01T00:10:25.343Z,4.20
2022-08-01T00:12:52.304Z,4.10
2022-08-01T00:15:20.047Z,4.50
2022-08-01T00:17:46.913Z,5.07
2022-08-01T00:20:16.798Z,5.00
2022-08-01T00:22:43.657Z,4.60
2022-08-01T00:25:10.667Z,5.27
2022-08-01T00:27:38.031Z,5.40
2022-08-01T00:30:13.309Z,4.60
2022-08-01T00:32:42.775Z,4.47
2022-08-01T00:35:10.012Z,3.63
2022-08-01T00:37:36.896Z,4.30
2022-08-01T00:40:04.707Z,4.60
2022-08-01T00:42:31.553Z,4.87
2022-08-01T00:44:58.447Z,4.33
2022-08-01T00:47:25.288Z,4.60
2022-08-01T00:49:52.218Z,5.20
2022-08-01T00:52:19.251Z,5.23
2022-08-01T00:54:46.737Z,4.70
2022-08-01T00:57:15.201Z,7.10
2022-08-01T00:59:42.783Z,5.17
2022-08-01T01:02:15.745Z,4.60
2022-08-01T01:04:44.078Z,4.40
2022-08-01T01:07:32.739Z,5.20
2022-08-01T01:10:16.455Z,4.33
2022-08-01T01:13:01.635Z,5.13
2022-08-01T01:15:37.823Z,4.50
2022-08-01T01:18:12.293Z,5.37
2022-08-01T01:20:43.143Z,5.43
2022-08-01T01:23:21.410Z,5.47
2022-08-01T01:26:16.048Z,7.53
2022-08-01T01:29:02.278Z,6.77
2022-08-01T01:31:32.005Z,8.17
2022-08-01T01:34:00.667Z,9.67
2022-08-01T01:36:29.965Z,7.37
2022-08-01T01:38:57.596Z,8.27
2022-08-01T01:41:25.030Z,7.73
2022-08-01T01:43:53.483Z,9.00
2022-08-01T01:46:24.504Z,8.77
2022-08-01T01:48:52.813Z,8.43
2022-08-01T01:51:23.409Z,8.73
2022-08-01T01:53:52.041Z,8.90
2022-08-01T01:56:20.961Z,7.63
2022-08-01T01:58:53.334Z,8.83
2022-08-01T02:01:58.323Z,8.40
2022-08-01T02:04:09.921Z,8.93
2022-08-01T02:06:38.726Z,8.40
2022-08-01T02:09:07.003Z,8.67
2022-08-01T02:11:36.539Z,8.80
2022-08-01T02:14:24.585Z,8.17
2022-08-01T02:16:51.944Z,8.87
2022-08-01T02:19:20.564Z,8.33
2022-08-01T02:21:52.738Z,9.00
2022-08-01T02:24:34.050Z,9.33
2022-08-01T02:27:05.931Z,8.57
2022-08-01T02:29:53.271Z,7.97
2022-08-01T02:32:25.437Z,8.90
2022-08-01T02:34:56.924Z,11.43
2022-08-01T02:37:27.436Z,9.60
2022-08-01T02:39:56.341Z,10.40
2022-08-01T02:42:26.093Z,9.97
2022-08-01T02:44:54.975Z,9.80
2022-08-01T02:47:24.614Z,11.20
2022-08-01T02:49:54.014Z,11.10
2022-08-01T02:52:24.255Z,11.03
2022-08-01T02:54:54.489Z,11.50
2022-08-01T02:57:22.442Z,11.30
2022-08-01T02:59:51.419Z,12.40
2022-08-01T03:02:20.395Z,13.67
2022-08-01T03:04:50.028Z,13.33
2022-08-01T03:07:21.589Z,12.97
2022-08-01T03:09:50.025Z,14.13
2022-08-01T03:12:20.076Z,14.60
2022-08-01T03:14:48.990Z,13.40
2022-08-01T03:17:19.487Z,14.27
2022-08-01T03:19:47.793Z,14.30
2022-08-01T03:22:16.799Z,14.83
2022-08-01T03:24:49.646Z,14.40
2022-08-01T03:27:20.309Z,14.90
2022-08-01T03:29:48.487Z,14.30
2022-08-01T03:32:16.918Z,13.83
2022-08-01T03:34:43.761Z,13.87
2022-08-01T03:37:36.788Z,14.80
2022-08-01T03:40:10.690Z,13.20
2022-08-01T03:42:46.749Z,14.07
2022-08-01T03:45:25.992Z,13.47
2022-08-01T03:48:04.451Z,12.13
2022-08-01T03:50:34.901Z,13.90
2022-08-01T03:53:03.440Z,14.27
2022-08-01T03:55:32.358Z,13.20
2022-08-01T03:58:00.672Z,13.33
2022-08-01T04:00:28.619Z,12.50
2022-08-01T04:02:56.262Z,12.80
2022-08-01T04:05:23.626Z,14.27
2022-08-01T04:07:56.622Z,12.80
2022-08-01T04:10:24.951Z,12.40
2022-08-01T04:12:52.223Z,14.67
2022-08-01T04:15:21.241Z,13.80
2022-08-01T04:17:48.936Z,12.30
2022-08-01T04:20:16.714Z,12.60
2022-08-01T04:22:43.733Z,12.53
2022-08-01T04:25:26.935Z,13.53
2022-08-01T04:27:55.550Z,14.00
2022-08-01T04:30:27.921Z,14.47
2022-08-01T04:32:58.444Z,12.80
2022-08-01T04:36:02.103Z,13.37
2022-08-01T04:38:23.597Z,14.63
2022-08-01T04:40:53.371Z,12.77
2022-08-01T04:43:20.206Z,13.53
2022-08-01T04:45:48.547Z,14.57
2022-08-01T04:48:18.694Z,13.27
2022-08-01T04:50:45.906Z,13.70
2022-08-01T04:53:20.426Z,13.90
2022-08-01T04:55:47.728Z,12.43
2022-08-01T04:58:18.637Z,14.20
2022-08-01T05:00:46.694Z,13.60
2022-08-01T05:03:13.592Z,13.60
2022-08-01T05:05:40.426Z,13.63
2022-08-01T05:08:07.461Z,12.80
2022-08-01T05:10:34.907Z,12.90
2022-08-01T05:13:01.818Z,12.97
2022-08-01T05:15:28.744Z,14.17
2022-08-01T05:17:55.890Z,13.83
2022-08-01T05:20:22.689Z,14.80
2022-08-01T05:22:49.635Z,12.60
2022-08-01T05:25:20.174Z,12.23
2022-08-01T05:27:52.741Z,12.23
2022-08-01T05:30:20.935Z,12.10
2022-08-01T05:32:47.772Z,14.13
2022-08-01T05:35:14.691Z,12.07
2022-08-01T05:37:41.555Z,11.20
2022-08-01T05:40:09.141Z,12.50
2022-08-01T05:42:36.088Z,10.63
2022-08-01T05:45:03.002Z,10.30
2022-08-01T05:47:29.819Z,10.67
2022-08-01T05:49:56.660Z,9.80
2022-08-01T05:52:23.525Z,11.10
2022-08-01T05:54:50.354Z,10.40
2022-08-01T05:57:17.225Z,10.17
2022-08-01T05:59:44.183Z,10.50
2022-08-01T06:02:11.291Z,10.60
2022-08-01T06:04:38.364Z,10.33
2022-08-01T06:07:05.227Z,10.70
2022-08-01T06:09:32.031Z,11.17
2022-08-01T06:11:58.896Z,19.07
2022-08-01T06:14:25.982Z,10.47
2022-08-01T06:16:52.885Z,9.87
2022-08-01T06:19:20.063Z,9.20
2022-08-01T06:21:46.936Z,9.70
2022-08-01T06:24:13.866Z,10.80
2022-08-01T06:26:40.695Z,10.07
2022-08-01T06:29:07.538Z,8.97
2022-08-01T06:31:36.942Z,10.13
2022-08-01T06:34:03.762Z,9.47
2022-08-01T06:36:30.637Z,9.67
2022-08-01T06:38:57.469Z,8.70
2022-08-01T06:41:24.605Z,8.93
2022-08-01T06:43:51.526Z,8.30
2022-08-01T06:46:18.395Z,8.80
2022-08-01T06:48:45.339Z,8.50
2022-08-01T06:51:14.677Z,8.17
2022-08-01T06:53:44.314Z,8.20
2022-08-01T06:56:12.057Z,8.90
2022-08-01T06:58:38.953Z,8.20
2022-08-01T07:01:08.049Z,8.37
2022-08-01T07:03:54.103Z,7.33
2022-08-01T07:06:23.883Z,7.07
2022-08-01T07:08:50.771Z,8.70
2022-08-01T07:11:18.003Z,20.33
2022-08-01T07:13:46.791Z,6.40
2022-08-01T07:16:14.670Z,6.53
2022-08-01T07:18:42.071Z,6.73
2022-08-01T07:21:16.426Z,6.10
2022-08-01T07:23:56.603Z,6.80
2022-08-01T07:26:23.470Z,7.07
2022-08-01T07:28:50.279Z,5.23
2022-08-01T07:31:17.182Z,5.53
2022-08-01T07:33:47.977Z,6.37
2022-08-01T07:36:16.896Z,7.40
2022-08-01T07:38:43.940Z,3.90
2022-08-01T07:41:10.815Z,3.47
2022-08-01T07:43:37.761Z,2.90
2022-08-01T07:46:05.775Z,2.70
2022-08-01T07:48:32.939Z,2.97
2022-08-01T07:51:00.294Z,2.90
2022-08-01T07:53:27.312Z,2.53
2022-08-01T07:55:54.173Z,3.67
2022-08-01T07:58:21.133Z,13.77
2022-08-01T08:00:47.980Z,3.10
2022-08-01T08:03:14.828Z,3.40
2022-08-01T08:05:59.031Z,3.03
2022-08-01T08:08:27.488Z,3.00
2022-08-01T08:10:54.397Z,3.20
2022-08-01T08:13:21.516Z,3.20
2022-08-01T08:15:49.014Z,3.20
2022-08-01T08:18:16.918Z,2.80
2022-08-01T08:20:44.308Z,2.80
2022-08-01T08:23:42.564Z,4.20
2022-08-01T08:26:14.062Z,7.00
2022-08-01T08:28:41.095Z,3.30
2022-08-01T08:31:25.255Z,3.00
2022-08-01T08:33:52.829Z,3.00
2022-08-01T08:36:19.716Z,2.87
2022-08-01T08:38:46.519Z,2.63
2022-08-01T08:41:17.929Z,3.10
2022-08-01T08:43:47.859Z,3.10
2022-08-01T08:46:15.748Z,2.97
2022-08-01T08:48:43.399Z,2.23
2022-08-01T08:51:12.359Z,3.10
2022-08-01T08:53:45.531Z,3.17
2022-08-01T08:56:16.729Z,3.50
2022-08-01T08:58:46.269Z,2.87
2022-08-01T09:01:14.099Z,4.10
2022-08-01T09:03:42.012Z,4.00
2022-08-01T09:06:09.001Z,3.70
2022-08-01T09:08:36.160Z,2.97
2022-08-01T09:11:03.476Z,2.37
2022-08-01T09:13:30.596Z,6.30
2022-08-01T09:16:00.002Z,2.13
2022-08-01T09:18:36.614Z,3.17
2022-08-01T09:21:15.297Z,2.83
2022-08-01T09:23:54.233Z,2.30
2022-08-01T09:26:34.033Z,2.10
2022-08-01T09:29:04.961Z,1.53
2022-08-01T09:31:47.890Z,1.10
2022-08-01T09:34:16.839Z,0.90
2022-08-01T09:36:54.071Z,2.70
2022-08-01T09:39:32.053Z,1.70
2022-08-01T09:42:01.993Z,2.60
2022-08-01T09:44:55.015Z,1.20
2022-08-01T09:47:23.942Z,1.87
2022-08-01T09:49:59.192Z,1.13
2022-08-01T09:52:29.364Z,1.97
2022-08-01T09:54:59.347Z,1.40
2022-08-01T09:57:27.233Z,2.60
2022-08-01T09:59:59.117Z,2.03
2022-08-01T10:02:38.531Z,1.40
2022-08-01T10:05:08.922Z,1.37
2022-08-01T10:07:42.714Z,0.80
2022-08-01T10:10:14.537Z,1.07
2022-08-01T10:12:45.504Z,0.77
2022-08-01T10:15:16.637Z,0.80
2022-08-01T10:17:57.627Z,0.70
2022-08-01T10:20:30.938Z,1.10
2022-08-01T10:23:06.191Z,1.03
2022-08-01T10:25:46.669Z,0.90
2022-08-01T10:28:23.695Z,1.07
2022-08-01T10:30:53.205Z,0.83
2022-08-01T10:33:51.475Z,0.60
2022-08-01T10:36:11.426Z,0.93
2022-08-01T10:38:38.613Z,1.07
2022-08-01T10:41:09.079Z,0.80
2022-08-01T10:43:36.655Z,1.10
2022-08-01T10:46:05.237Z,0.80
2022-08-01T10:48:48.116Z,0.77
2022-08-01T10:51:18.157Z,1.03
2022-08-01T10:53:54.352Z,0.83
2022-08-01T10:56:26.541Z,0.83
2022-08-01T10:59:06.713Z,0.90
2022-08-01T11:01:38.765Z,1.10
2022-08-01T11:04:17.696Z,0.90
2022-08-01T11:07:03.206Z,0.77
2022-08-01T11:09:41.658Z,0.93
2022-08-01T11:12:13.717Z,0.70
2022-08-01T11:14:59.974Z,0.70
2022-08-01T11:17:42.899Z,0.70
2022-08-01T11:20:10.237Z,0.97
2022-08-01T11:23:02.926Z,0.80
2022-08-01T11:26:06.166Z,0.97
2022-08-01T11:28:30.178Z,0.70
2022-08-01T11:31:13.893Z,0.70
2022-08-01T11:33:46.107Z,1.10
2022-08-01T11:36:14.229Z,2.30
2022-08-01T11:38:50.392Z,0.90
2022-08-01T11:41:38.234Z,0.80
2022-08-01T11:44:11.927Z,0.80
2022-08-01T11:47:09.238Z,0.70
2022-08-01T11:49:48.782Z,1.60
2022-08-01T11:52:28.872Z,2.30
2022-08-01T11:54:58.308Z,1.70
2022-08-01T11:57:34.309Z,1.70
2022-08-01T12:00:12.135Z,1.47
2022-08-01T12:02:43.046Z,1.63
2022-08-01T12:05:21.539Z,2.47
2022-08-01T12:07:52.686Z,2.20
2022-08-01T12:10:21.568Z,2.43
2022-08-01T12:12:55.903Z,2.10
2022-08-01T12:21:05.758Z,1.77
2022-08-01T12:23:32.627Z,1.40
2022-08-01T12:25:59.597Z,1.40
2022-08-01T12:28:27.566Z,1.27
2022-08-01T12:30:54.906Z,1.00
2022-08-01T12:33:22.178Z,1.30
2022-08-01T12:35:49.458Z,0.90
2022-08-01T12:38:19.241Z,1.00
2022-08-01T12:40:53.060Z,1.00
2022-08-01T12:43:28.185Z,1.13
2022-08-01T12:45:58.771Z,1.70
2022-08-01T12:48:26.438Z,1.60
2022-08-01T12:50:54.128Z,1.90
2022-08-01T12:53:22.167Z,1.67
2022-08-01T12:55:59.400Z,1.30
2022-08-01T12:58:35.807Z,1.17
2022-08-01T13:01:11.164Z,1.00
2022-08-01T13:03:39.061Z,0.93
2022-08-01T13:06:17.876Z,1.07
2022-08-01T13:08:46.040Z,1.20
2022-08-01T13:11:19.140Z,1.50
2022-08-01T13:13:48.589Z,1.40
2022-08-01T13:16:27.907Z,1.30
2022-08-01T13:19:06.657Z,1.00
2022-08-01T13:21:53.010Z,1.10
2022-08-01T13:24:29.010Z,1.10
2022-08-01T13:27:00.840Z,1.13
2022-08-01T13:29:33.680Z,1.50
2022-08-01T13:32:12.710Z,1.10
2022-08-01T13:35:06.009Z,1.53
2022-08-01T13:37:33.127Z,0.97
2022-08-01T13:40:00.021Z,1.50
2022-08-01T13:42:27.005Z,1.83
2022-08-01T13:44:53.826Z,1.30
2022-08-01T13:47:31.179Z,1.23
2022-08-01T13:50:03.196Z,1.73
2022-08-01T13:52:31.749Z,1.40
2022-08-01T13:54:59.428Z,1.03
2022-08-01T13:57:26.432Z,1.63
2022-08-01T14:00:07.145Z,1.23
2022-08-01T14:02:38.990Z,1.03
2022-08-01T14:05:06.334Z,2.40
2022-08-01T14:07:33.222Z,1.07
2022-08-01T14:10:18.304Z,1.20
2022-08-01T14:12:50.592Z,1.30
2022-08-01T14:15:36.752Z,1.03
2022-08-01T14:18:06.196Z,1.07
2022-08-01T14:20:34.193Z,1.10
2022-08-01T14:23:01.167Z,1.00
2022-08-01T14:26:00.761Z,1.13
2022-08-01T14:28:15.114Z,1.17
2022-08-01T14:30:43.680Z,1.80
2022-08-01T14:33:11.981Z,0.90
2022-08-01T14:36:06.180Z,1.03
2022-08-01T14:38:31.253Z,1.87
2022-08-01T14:41:00.413Z,0.90
2022-08-01T14:43:32.928Z,1.47
2022-08-01T14:46:01.688Z,1.27
2022-08-01T14:48:28.546Z,1.33
2022-08-01T14:50:57.581Z,7.83
2022-08-01T14:53:24.415Z,1.10
2022-08-01T14:55:51.315Z,1.30
2022-08-01T14:58:18.100Z,1.10
2022-08-01T15:00:45.245Z,1.20
2022-08-01T15:03:12.157Z,1.17
2022-08-01T15:05:39.165Z,1.33
2022-08-01T15:08:07.768Z,1.10
2022-08-01T15:10:34.774Z,1.03
2022-08-01T15:13:02.553Z,1.23
2022-08-01T15:15:29.941Z,1.00
2022-08-01T15:17:57.238Z,2.97
2022-08-01T15:20:24.836Z,1.57
2022-08-01T15:22:51.735Z,1.20
2022-08-01T15:25:18.653Z,1.40
2022-08-01T15:27:45.530Z,1.10
2022-08-01T15:30:12.743Z,1.20
2022-08-01T15:32:39.601Z,0.97
2022-08-01T15:35:07.867Z,1.00
2022-08-01T15:37:37.366Z,1.40
2022-08-01T15:40:06.945Z,3.00
2022-08-01T15:42:33.863Z,1.23
2022-08-01T15:45:00.703Z,1.13
2022-08-01T15:47:27.552Z,1.43
2022-08-01T15:49:56.716Z,1.30
2022-08-01T15:52:30.942Z,1.10
2022-08-01T15:54:59.160Z,1.13
2022-08-01T15:57:26.050Z,0.93
2022-08-01T15:59:53.082Z,1.53
2022-08-01T16:02:20.011Z,1.27
2022-08-01T16:04:46.973Z,1.10
2022-08-01T16:07:13.857Z,1.27
2022-08-01T16:09:40.766Z,13.53
2022-08-01T16:12:08.468Z,1.63
2022-08-01T16:14:35.694Z,13.30
2022-08-01T16:17:02.587Z,1.43
2022-08-01T16:19:29.419Z,1.77
2022-08-01T16:21:56.282Z,1.67
2022-08-01T16:24:23.732Z,1.10
2022-08-01T16:26:50.760Z,1.20
2022-08-01T16:29:17.630Z,1.90
2022-08-01T16:31:52.191Z,1.33
2022-08-01T16:34:30.431Z,2.10
2022-08-01T16:36:57.519Z,1.57
2022-08-01T16:39:24.395Z,1.30
2022-08-01T16:53:49.719Z,1.23
2022-08-01T16:56:16.627Z,2.00
2022-08-01T16:58:43.611Z,1.70
2022-08-01T17:02:00.297Z,1.60
2022-08-01T17:04:01.175Z,1.30
2022-08-01T17:06:29.379Z,12.07
2022-08-01T17:08:56.439Z,3.10
2022-08-01T17:11:23.363Z,2.00
2022-08-01T17:13:50.203Z,2.00
2022-08-01T17:16:17.054Z,3.00
2022-08-01T17:18:43.977Z,1.93
2022-08-01T17:21:10.917Z,1.50
2022-08-01T17:23:38.706Z,1.93
2022-08-01T17:26:05.588Z,1.50
2022-08-01T17:28:32.794Z,1.90
2022-08-01T17:30:59.928Z,1.73
2022-08-01T17:33:45.437Z,1.47
2022-08-01T17:36:14.522Z,2.23
2022-08-01T17:38:41.401Z,2.07
2022-08-01T17:41:08.350Z,1.87
2022-08-01T17:43:35.518Z,1.93
2022-08-01T17:46:02.394Z,1.90
2022-08-01T17:48:29.511Z,1.50
2022-08-01T17:50:56.366Z,1.57
2022-08-01T17:53:24.101Z,2.40
2022-08-01T17:55:55.435Z,5.23
2022-08-01T17:58:49.845Z,2.97
2022-08-01T18:01:18.441Z,1.73
2022-08-01T18:03:46.459Z,2.00
2022-08-01T18:06:17.080Z,1.73
2022-08-01T18:08:46.983Z,1.77
2022-08-01T18:11:16.331Z,1.70
2022-08-01T18:13:43.925Z,1.83
2022-08-01T18:16:13.066Z,2.00
2022-08-01T18:18:41.972Z,1.80
2022-08-01T18:21:10.342Z,2.20
2022-08-01T18:23:37.289Z,2.60
2022-08-01T18:26:07.418Z,1.70
2022-08-01T18:28:46.760Z,3.20
2022-08-01T18:31:17.424Z,2.40
2022-08-01T18:33:45.162Z,2.17
2022-08-01T18:36:29.118Z,1.93
2022-08-01T18:39:00.096Z,2.00
2022-08-01T18:41:27.132Z,22.67
2022-08-01T18:44:05.458Z,4.03
2022-08-01T18:46:39.639Z,2.70
2022-08-01T18:49:08.919Z,2.13
2022-08-01T18:51:40.188Z,2.07
2022-08-01T18:54:10.055Z,1.57
2022-08-01T18:56:36.941Z,1.77
2022-08-01T18:59:03.900Z,2.70
2022-08-01T19:01:30.840Z,2.37
2022-08-01T19:03:57.839Z,2.10
2022-08-01T19:06:27.044Z,2.20
2022-08-01T19:08:57.051Z,2.00
2022-08-01T19:11:28.566Z,3.23
2022-08-01T19:13:55.644Z,4.60
2022-08-01T19:16:22.588Z,2.17
2022-08-01T19:18:49.508Z,2.70
2022-08-01T19:21:16.562Z,2.60
2022-08-01T19:24:02.261Z,2.07
2022-08-01T19:26:32.439Z,2.30
2022-08-01T19:29:05.855Z,1.93
2022-08-01T19:31:33.857Z,1.57
2022-08-01T19:34:01.390Z,3.10
2022-08-01T19:36:28.527Z,3.23
2022-08-01T19:38:57.304Z,2.40
2022-08-01T19:41:24.502Z,2.17
2022-08-01T19:43:52.382Z,2.47
2022-08-01T19:46:19.785Z,2.33
2022-08-01T19:48:53.595Z,2.00
2022-08-01T19:51:22.844Z,2.10
2022-08-01T19:54:05.224Z,2.23
2022-08-01T19:56:39.782Z,2.30
2022-08-01T19:59:10.985Z,3.97
2022-08-01T20:01:37.979Z,3.40
2022-08-01T20:04:06.221Z,3.10
2022-08-01T20:06:34.925Z,2.60
2022-08-01T20:09:03.933Z,2.43
2022-08-01T20:11:31.186Z,3.47
2022-08-01T20:13:58.733Z,4.37
2022-08-01T20:16:26.142Z,2.93
2022-08-01T20:18:53.014Z,2.20
2022-08-01T20:21:21.118Z,2.73
2022-08-01T20:23:50.144Z,2.30
2022-08-01T20:26:18.130Z,2.80
2022-08-01T20:28:49.230Z,3.43
2022-08-01T20:31:16.835Z,2.57
2022-08-01T20:33:49.152Z,2.83
2022-08-01T20:36:25.721Z,2.13
2022-08-01T20:38:57.480Z,2.20
2022-08-01T20:41:25.937Z,2.00
2022-08-01T20:43:55.058Z,1.80
2022-08-01T20:46:27.975Z,1.67
2022-08-01T20:48:57.588Z,2.27
2022-08-01T20:51:26.749Z,1.90
2022-08-01T20:53:55.755Z,2.10
2022-08-01T20:56:41.226Z,1.47
2022-08-01T20:59:39.756Z,2.10
2022-08-01T21:02:47.950Z,1.73
2022-08-01T21:05:25.768Z,1.43
2022-08-01T21:07:58.587Z,4.00
2022-08-01T21:10:29.080Z,1.80
2022-08-01T21:13:10.705Z,2.00
2022-08-01T21:16:12.542Z,1.90
2022-08-01T21:18:39.986Z,1.70
2022-08-01T21:21:17.464Z,1.80
2022-08-01T21:24:05.294Z,1.67
2022-08-01T21:26:35.656Z,1.40
2022-08-01T21:29:07.018Z,1.50
2022-08-01T21:31:40.520Z,1.60
2022-08-01T21:34:08.935Z,1.70
2022-08-01T21:36:36.404Z,2.10
2022-08-01T21:39:05.861Z,1.80
2022-08-01T21:42:05.418Z,1.83
2022-08-01T21:44:24.238Z,1.50
2022-08-01T21:46:59.144Z,1.70
2022-08-01T21:49:26.508Z,1.47
2022-08-01T21:52:15.399Z,1.97
2022-08-01T21:54:57.612Z,1.90
2022-08-01T21:57:26.998Z,1.57
2022-08-01T22:00:20.979Z,2.03
2022-08-01T22:02:58.541Z,1.67
2022-08-01T22:05:50.634Z,1.40
2022-08-01T22:08:17.692Z,1.03
2022-08-01T22:10:44.653Z,1.93
2022-08-01T22:13:12.230Z,1.30
2022-08-01T22:15:44.189Z,2.23
2022-08-01T22:18:12.395Z,1.70
2022-08-01T22:20:40.363Z,1.37
2022-08-01T22:23:07.796Z,1.60
2022-08-01T22:25:36.286Z,2.00
2022-08-01T22:28:09.574Z,1.97
2022-08-01T22:30:41.836Z,1.67
2022-08-01T22:33:16.153Z,1.40
2022-08-01T22:35:52.819Z,1.57
2022-08-01T22:38:22.691Z,1.93
2022-08-01T22:40:58.241Z,1.90
2022-08-01T22:43:29.388Z,2.10
2022-08-01T22:46:35.896Z,1.80
2022-08-01T22:49:31.069Z,1.60
2022-08-01T22:52:07.732Z,1.70
2022-08-01T22:54:40.122Z,1.57
2022-08-01T22:57:15.912Z,2.70
2022-08-01T23:00:05.169Z,1.83
2022-08-01T23:02:36.591Z,1.70
2022-08-01T23:05:07.831Z,1.70
2022-08-01T23:07:39.549Z,2.30
2022-08-01T23:10:07.918Z,1.70
2022-08-01T23:12:34.743Z,2.40
2022-08-01T23:15:01.860Z,1.67
2022-08-01T23:17:31.191Z,2.27
2022-08-01T23:20:04.149Z,2.20
2022-08-01T23:22:33.506Z,1.90
2022-08-01T23:25:04.051Z,2.30
2022-08-01T23:27:55.878Z,2.13
2022-08-01T23:30:26.067Z,2.37
2022-08-01T23:32:53.310Z,3.50
2022-08-01T23:35:20.378Z,1.80
2022-08-01T23:37:47.306Z,2.10
2022-08-01T23:40:14.181Z,2.00
2022-08-01T23:42:41.150Z,2.00
2022-08-01T23:45:08.657Z,1.63
2022-08-01T23:47:35.563Z,2.37
2022-08-01T23:50:02.372Z,2.00
2022-08-01T23:52:32.417Z,2.20
2022-08-01T23:55:06.417Z,2.40
2022-08-01T23:57:42.450Z,2.70
